createdAt,value
2018-06-19T00:01:47.725Z,2.97
2018-06-19T00:04:18.976Z,3.33
2018-06-19T00:06:49.517Z,3.10
2018-06-19T00:09:20.124Z,3.57
2018-06-19T00:11:55.374Z,3.77
2018-06-19T00:14:25.803Z,4.10
2018-06-19T00:16:57.529Z,3.53
2018-06-19T00:19:29.785Z,2.93
2018-06-19T00:22:02.745Z,3.30
2018-06-19T00:24:33.367Z,3.13
2018-06-19T00:27:04.126Z,3.47
2018-06-19T00:29:34.797Z,3.70
2018-06-19T00:32:05.481Z,2.83
2018-06-19T00:34:36.156Z,3.60
2018-06-19T00:37:06.974Z,3.90
2018-06-19T00:39:38.387Z,3.80
2018-06-19T00:42:08.856Z,4.10
2018-06-19T00:44:39.647Z,4.23
2018-06-19T00:47:10.377Z,4.67
2018-06-19T00:49:41.147Z,3.67
2018-06-19T00:52:11.755Z,4.20
2018-06-19T00:54:42.267Z,3.20
2018-06-19T00:57:12.943Z,3.40
2018-06-19T00:59:43.629Z,3.77
2018-06-19T01:02:14.302Z,3.93
2018-06-19T01:04:45.032Z,3.20
2018-06-19T01:07:15.841Z,4.03
2018-06-19T01:09:46.468Z,3.97
2018-06-19T01:12:17.447Z,3.57
2018-06-19T01:14:48.012Z,3.80
2018-06-19T01:17:18.641Z,3.43
2018-06-19T01:19:49.215Z,4.43
2018-06-19T01:22:19.837Z,3.40
2018-06-19T01:24:50.399Z,3.57
2018-06-19T01:27:21.013Z,3.67
2018-06-19T01:29:51.637Z,3.27
2018-06-19T01:32:22.328Z,3.57
2018-06-19T01:34:53.049Z,3.30
2018-06-19T01:37:23.695Z,3.67
2018-06-19T01:39:53.987Z,3.67
2018-06-19T01:42:24.452Z,3.30
2018-06-19T01:44:55.128Z,3.70
2018-06-19T01:47:25.839Z,3.57
2018-06-19T01:49:56.021Z,3.80
2018-06-19T01:52:26.669Z,2.77
2018-06-19T01:54:57.948Z,3.60
2018-06-19T01:57:28.651Z,4.37
2018-06-19T01:59:59.598Z,3.47
2018-06-19T02:02:30.209Z,3.53
2018-06-19T02:05:00.781Z,3.83
2018-06-19T02:07:31.624Z,3.53
2018-06-19T02:10:02.356Z,4.00
2018-06-19T02:12:33.330Z,3.67
2018-06-19T02:15:03.884Z,3.73
2018-06-19T02:17:34.365Z,3.40
2018-06-19T02:20:05.710Z,3.40
2018-06-19T02:22:36.350Z,4.77
2018-06-19T02:25:11.801Z,4.30
2018-06-19T02:27:42.492Z,3.17
2018-06-19T02:30:13.036Z,5.30
2018-06-19T02:32:43.531Z,3.17
2018-06-19T02:35:14.445Z,3.43
2018-06-19T02:37:45.119Z,3.73
2018-06-19T02:40:15.917Z,3.23
2018-06-19T02:42:46.689Z,3.70
2018-06-19T02:45:17.451Z,3.90
2018-06-19T02:47:47.937Z,3.70
2018-06-19T02:50:18.510Z,3.90
2018-06-19T02:52:49.117Z,3.53
2018-06-19T02:55:19.776Z,4.00
2018-06-19T02:57:51.281Z,2.97
2018-06-19T03:00:22.384Z,4.00
2018-06-19T03:02:53.040Z,3.70
2018-06-19T03:05:23.828Z,3.40
2018-06-19T03:07:54.775Z,3.87
2018-06-19T03:10:25.395Z,3.40
2018-06-19T03:12:56.094Z,3.40
2018-06-19T03:15:26.648Z,3.37
2018-06-19T03:17:57.315Z,3.50
2018-06-19T03:20:27.945Z,2.10
2018-06-19T03:23:05.343Z,3.63
2018-06-19T03:25:36.054Z,3.77
2018-06-19T03:28:06.764Z,3.57
2018-06-19T03:30:37.754Z,3.43
2018-06-19T03:33:08.580Z,3.30
2018-06-19T03:35:39.186Z,4.40
2018-06-19T03:38:09.768Z,2.83
2018-06-19T03:40:40.453Z,4.10
2018-06-19T03:43:11.159Z,2.57
2018-06-19T03:45:41.894Z,2.83
2018-06-19T03:48:12.161Z,2.83
2018-06-19T03:50:42.582Z,3.10
2018-06-19T03:53:13.297Z,3.10
2018-06-19T03:55:43.817Z,3.17
2018-06-19T03:58:14.540Z,2.87
2018-06-19T04:00:45.289Z,2.97
2018-06-19T04:03:15.514Z,3.10
2018-06-19T04:05:45.628Z,3.10
2018-06-19T04:08:20.058Z,3.70
2018-06-19T04:10:50.205Z,3.10
2018-06-19T04:13:20.531Z,2.80
2018-06-19T04:15:51.234Z,2.80
2018-06-19T04:18:21.863Z,2.60
2018-06-19T04:20:52.598Z,2.80
2018-06-19T04:23:23.325Z,2.73
2018-06-19T04:25:54.049Z,2.77
2018-06-19T04:28:24.508Z,3.00
2018-06-19T04:30:55.210Z,3.17
2018-06-19T04:33:25.485Z,2.37
2018-06-19T04:35:55.620Z,2.93
2018-06-19T04:38:26.099Z,2.70
2018-06-19T04:40:57.562Z,3.80
2018-06-19T04:43:28.465Z,3.13
2018-06-19T04:45:58.752Z,2.90
2018-06-19T04:48:29.354Z,3.30
2018-06-19T04:50:59.905Z,2.67
2018-06-19T04:53:30.516Z,2.73
2018-06-19T04:56:01.109Z,2.87
2018-06-19T04:58:31.833Z,3.23
2018-06-19T05:01:02.393Z,3.20
2018-06-19T05:03:32.945Z,2.70
2018-06-19T05:06:03.605Z,2.90
2018-06-19T05:08:34.092Z,2.53
2018-06-19T05:11:04.753Z,2.17
2018-06-19T05:13:35.433Z,3.00
2018-06-19T05:16:06.318Z,2.80
2018-06-19T05:18:37.080Z,2.80
2018-06-19T05:21:07.784Z,2.30
2018-06-19T05:23:38.520Z,2.03
2018-06-19T05:26:09.168Z,2.30
2018-06-19T05:28:39.732Z,1.67
2018-06-19T05:31:10.192Z,2.70
2018-06-19T05:33:41.298Z,2.27
2018-06-19T05:36:11.937Z,1.90
2018-06-19T05:38:42.717Z,2.37
2018-06-19T05:41:13.684Z,1.77
2018-06-19T05:43:45.112Z,2.20
2018-06-19T05:46:15.844Z,1.83
2018-06-19T05:48:46.454Z,1.80
2018-06-19T05:51:17.136Z,1.60
2018-06-19T05:53:48.920Z,2.13
2018-06-19T05:56:19.490Z,2.30
2018-06-19T05:58:50.089Z,1.40
2018-06-19T06:01:21.378Z,1.90
2018-06-19T06:03:52.372Z,1.83
2018-06-19T06:06:22.852Z,1.90
2018-06-19T06:08:53.343Z,1.70
2018-06-19T06:11:23.961Z,1.30
2018-06-19T06:13:54.530Z,1.60
2018-06-19T06:16:25.273Z,1.73
2018-06-19T06:18:55.859Z,1.90
2018-06-19T06:21:26.344Z,2.10
2018-06-19T06:23:57.013Z,1.77
2018-06-19T06:26:27.500Z,1.60
2018-06-19T06:28:58.076Z,2.17
2018-06-19T06:31:28.574Z,2.00
2018-06-19T06:33:59.512Z,2.13
2018-06-19T06:36:30.054Z,2.00
2018-06-19T06:39:00.622Z,1.80
2018-06-19T06:41:31.200Z,1.20
2018-06-19T06:44:01.902Z,1.47
2018-06-19T06:46:32.420Z,1.53
2018-06-19T06:49:03.052Z,1.23
2018-06-19T06:51:33.722Z,6.60
2018-06-19T06:54:04.422Z,1.20
2018-06-19T06:56:34.969Z,2.50
2018-06-19T06:59:05.818Z,1.10
2018-06-19T07:01:36.448Z,1.20
2018-06-19T07:04:13.721Z,1.27
2018-06-19T07:06:44.743Z,1.70
2018-06-19T07:09:15.599Z,1.27
2018-06-19T07:11:46.367Z,1.33
2018-06-19T07:14:17.037Z,1.20
2018-06-19T07:16:47.777Z,1.40
2018-06-19T07:19:18.396Z,1.13
2018-06-19T07:21:49.839Z,1.50
2018-06-19T07:24:20.892Z,1.60
2018-06-19T07:26:51.664Z,1.40
2018-06-19T07:29:22.199Z,1.27
2018-06-19T07:31:52.876Z,1.60
2018-06-19T07:34:23.317Z,1.47
2018-06-19T07:36:54.004Z,1.43
2018-06-19T07:39:24.668Z,1.47
2018-06-19T07:41:55.446Z,1.73
2018-06-19T07:44:26.027Z,1.97
2018-06-19T07:46:56.471Z,1.17
2018-06-19T07:49:27.012Z,1.30
2018-06-19T07:51:57.788Z,1.00
2018-06-19T07:54:28.251Z,1.23
2018-06-19T07:56:59.006Z,1.40
2018-06-19T07:59:29.177Z,1.77
2018-06-19T08:01:59.670Z,1.50
2018-06-19T08:04:30.208Z,1.77
2018-06-19T08:07:03.565Z,1.23
2018-06-19T08:09:34.295Z,1.53
2018-06-19T08:12:05.873Z,1.20
2018-06-19T08:14:36.843Z,1.13
2018-06-19T08:17:07.342Z,1.67
2018-06-19T08:19:38.070Z,1.67
2018-06-19T08:22:08.365Z,1.30
2018-06-19T08:24:38.863Z,1.70
2018-06-19T08:27:09.899Z,1.23
2018-06-19T08:29:40.515Z,1.60
2018-06-19T08:32:11.130Z,1.13
2018-06-19T08:34:41.406Z,1.70
2018-06-19T08:37:11.875Z,1.30
2018-06-19T08:39:42.697Z,1.07
2018-06-19T08:42:13.057Z,1.30
2018-06-19T08:44:43.245Z,1.00
2018-06-19T08:47:13.611Z,1.37
2018-06-19T08:49:44.418Z,0.70
2018-06-19T08:52:14.673Z,0.80
2018-06-19T08:54:51.043Z,1.00
2018-06-19T08:57:21.670Z,0.73
2018-06-19T08:59:52.360Z,0.90
2018-06-19T09:02:23.014Z,0.80
2018-06-19T09:04:53.764Z,0.80
2018-06-19T09:07:24.997Z,0.80
2018-06-19T09:09:55.564Z,0.80
2018-06-19T09:12:26.288Z,0.80
2018-06-19T09:14:57.006Z,0.73
2018-06-19T09:17:27.734Z,0.70
2018-06-19T09:19:58.555Z,0.70
2018-06-19T09:22:29.152Z,0.80
2018-06-19T09:24:59.704Z,1.10
2018-06-19T09:27:30.359Z,1.00
2018-06-19T09:30:01.023Z,0.80
2018-06-19T09:32:31.732Z,1.00
2018-06-19T09:35:02.575Z,0.70
2018-06-19T09:37:33.284Z,0.90
2018-06-19T09:40:05.368Z,0.83
2018-06-19T09:42:35.870Z,0.67
2018-06-19T09:45:07.242Z,1.00
2018-06-19T09:47:37.856Z,0.90
2018-06-19T09:50:08.913Z,0.70
2018-06-19T09:52:39.609Z,0.63
2018-06-19T09:55:10.786Z,0.80
2018-06-19T09:57:41.305Z,0.83
2018-06-19T10:00:14.548Z,0.70
2018-06-19T10:02:45.250Z,0.80
2018-06-19T10:05:16.133Z,0.80
2018-06-19T10:07:46.693Z,0.70
2018-06-19T10:10:17.453Z,0.90
2018-06-19T10:12:47.972Z,0.60
2018-06-19T10:15:18.792Z,0.80
2018-06-19T10:17:49.553Z,0.90
2018-06-19T10:20:20.276Z,0.90
2018-06-19T10:22:50.999Z,1.17
2018-06-19T10:25:21.661Z,0.90
2018-06-19T10:27:52.294Z,1.00
2018-06-19T10:30:23.061Z,1.00
2018-06-19T10:32:53.618Z,1.20
2018-06-19T10:35:24.412Z,0.90
2018-06-19T10:37:55.006Z,1.30
2018-06-19T10:40:25.760Z,1.07
2018-06-19T10:42:56.368Z,1.00
2018-06-19T10:45:26.883Z,1.10
2018-06-19T10:47:57.446Z,1.00
2018-06-19T10:50:28.144Z,0.80
2018-06-19T10:52:58.913Z,0.90
2018-06-19T10:55:29.695Z,0.80
2018-06-19T10:58:00.349Z,0.80
2018-06-19T11:00:31.185Z,0.70
2018-06-19T11:03:01.995Z,0.77
2018-06-19T11:05:32.775Z,0.90
2018-06-19T11:08:03.724Z,0.70
2018-06-19T11:10:34.615Z,0.70
2018-06-19T11:13:05.565Z,1.07
2018-06-19T11:15:36.323Z,1.00
2018-06-19T11:18:07.868Z,0.70
2018-06-19T11:20:39.230Z,0.90
2018-06-19T11:23:09.982Z,1.10
2018-06-19T11:25:40.650Z,0.80
2018-06-19T11:28:11.447Z,0.90
2018-06-19T11:30:42.083Z,0.83
2018-06-19T11:33:12.669Z,1.27
2018-06-19T11:35:42.951Z,1.00
2018-06-19T11:38:13.729Z,0.93
2018-06-19T11:40:44.857Z,0.87
2018-06-19T11:43:15.493Z,0.80
2018-06-19T11:45:46.533Z,0.93
2018-06-19T11:48:17.293Z,0.90
2018-06-19T11:50:48.748Z,1.50
2018-06-19T11:53:19.788Z,1.00
2018-06-19T11:55:50.531Z,0.90
2018-06-19T11:58:21.278Z,0.70
2018-06-19T12:00:52.234Z,0.80
2018-06-19T12:03:22.958Z,1.20
2018-06-19T12:05:53.714Z,0.90
2018-06-19T12:08:24.385Z,0.90
2018-06-19T12:10:55.070Z,0.80
2018-06-19T12:13:25.717Z,0.87
2018-06-19T12:15:56.390Z,0.90
2018-06-19T12:18:27.074Z,0.83
2018-06-19T12:20:58.751Z,0.90
2018-06-19T12:23:29.487Z,0.80
2018-06-19T12:26:00.429Z,0.90
2018-06-19T12:28:31.348Z,0.80
2018-06-19T12:31:02.808Z,1.00
2018-06-19T12:33:33.712Z,1.30
2018-06-19T12:36:04.292Z,0.83
2018-06-19T12:38:35.402Z,0.93
2018-06-19T12:41:06.120Z,1.00
2018-06-19T12:43:36.969Z,0.70
2018-06-19T12:46:07.638Z,1.13
2018-06-19T12:48:39.067Z,1.50
2018-06-19T12:52:24.266Z,1.50
2018-06-19T12:55:24.148Z,1.30
2018-06-19T12:57:55.795Z,1.07
2018-06-19T13:00:27.442Z,1.47
2018-06-19T13:03:15.025Z,1.43
2018-06-19T13:06:02.655Z,1.10
2018-06-19T13:08:33.717Z,2.00
2018-06-19T13:11:05.277Z,1.20
2018-06-19T13:13:54.368Z,1.27
2018-06-19T13:16:41.888Z,1.10
2018-06-19T13:19:29.245Z,0.90
2018-06-19T13:21:59.837Z,0.90
2018-06-19T13:24:30.243Z,1.07
2018-06-19T13:27:01.597Z,1.00
2018-06-19T13:30:49.941Z,1.33
2018-06-19T13:33:20.546Z,1.10
2018-06-19T13:35:51.027Z,0.93
2018-06-19T13:38:21.722Z,1.57
2018-06-19T13:41:13.486Z,1.40
2018-06-19T13:44:02.236Z,1.00
2018-06-19T13:46:33.519Z,1.10
2018-06-19T13:49:04.183Z,1.30
2018-06-19T13:51:34.990Z,1.00
2018-06-19T13:54:06.007Z,1.10
2018-06-19T13:58:45.034Z,1.00
2018-06-19T14:01:16.077Z,0.97
2018-06-19T14:03:46.790Z,1.30
2018-06-19T14:06:17.566Z,1.10
2018-06-19T14:09:45.630Z,1.50
2018-06-19T14:12:58.494Z,1.03
2018-06-19T14:15:33.656Z,1.10
2018-06-19T14:18:04.542Z,1.23
2018-06-19T14:20:35.594Z,1.17
2018-06-19T14:23:06.356Z,0.90
2018-06-19T14:25:37.035Z,1.33
2018-06-19T14:28:07.653Z,1.30
2018-06-19T14:30:38.708Z,1.43
2018-06-19T14:33:09.544Z,1.00
2018-06-19T14:35:40.281Z,1.70
2018-06-19T14:38:10.964Z,1.40
2018-06-19T14:40:41.718Z,1.80
2018-06-19T14:43:12.464Z,1.40
2018-06-19T14:45:43.147Z,1.77
2018-06-19T14:48:13.800Z,2.17
2018-06-19T14:50:44.713Z,1.67
2018-06-19T14:53:15.472Z,1.40
2018-06-19T14:55:47.541Z,1.60
2018-06-19T14:58:18.453Z,1.50
2018-06-19T15:00:49.033Z,1.30
2018-06-19T15:03:19.889Z,1.30
2018-06-19T15:05:50.418Z,1.60
2018-06-19T15:08:21.149Z,1.53
2018-06-19T15:10:51.865Z,1.73
2018-06-19T15:13:22.730Z,1.70
2018-06-19T15:15:53.363Z,1.23
2018-06-19T15:18:24.084Z,1.50
2018-06-19T15:20:54.561Z,1.33
2018-06-19T15:23:28.295Z,1.27
2018-06-19T15:25:59.064Z,1.33
2018-06-19T15:28:29.858Z,1.60
2018-06-19T15:31:00.150Z,1.67
2018-06-19T15:33:30.827Z,1.60
2018-06-19T15:36:01.769Z,1.57
2018-06-19T15:38:32.060Z,1.33
2018-06-19T15:41:02.406Z,1.50
2018-06-19T15:43:33.120Z,1.77
2018-06-19T15:46:03.644Z,1.50
2018-06-19T15:48:34.760Z,1.33
2018-06-19T15:51:06.316Z,1.33
2018-06-19T15:53:37.101Z,1.37
2018-06-19T15:56:08.197Z,1.43
2018-06-19T15:58:38.796Z,1.77
2018-06-19T16:01:10.009Z,1.67
2018-06-19T16:03:40.528Z,1.37
2018-06-19T16:06:11.172Z,1.80
2018-06-19T16:08:41.660Z,1.10
2018-06-19T16:11:12.268Z,1.30
2018-06-19T16:13:43.012Z,1.47
2018-06-19T16:16:14.122Z,1.80
2018-06-19T16:18:44.405Z,1.60
2018-06-19T16:21:15.021Z,1.37
2018-06-19T16:23:45.217Z,1.50
2018-06-19T16:26:15.471Z,1.20
2018-06-19T16:28:46.273Z,1.30
2018-06-19T16:31:16.953Z,1.30
2018-06-19T16:33:49.156Z,1.50
2018-06-19T16:36:19.949Z,0.83
2018-06-19T16:38:50.841Z,0.90
2018-06-19T16:41:21.478Z,1.40
2018-06-19T16:43:52.107Z,1.13
2018-06-19T16:46:22.473Z,1.17
2018-06-19T16:48:52.915Z,1.27
2018-06-19T16:51:23.451Z,1.00
2018-06-19T16:53:54.323Z,0.80
2018-06-19T16:56:25.014Z,1.00
2018-06-19T16:58:55.711Z,1.30
2018-06-19T17:01:26.520Z,1.20
2018-06-19T17:03:57.172Z,1.50
2018-06-19T17:06:27.916Z,1.30
2018-06-19T17:08:59.213Z,1.30
2018-06-19T17:11:30.094Z,1.70
2018-06-19T17:14:00.813Z,1.80
2018-06-19T17:16:31.675Z,1.53
2018-06-19T17:19:02.529Z,1.60
2018-06-19T17:21:34.138Z,1.50
2018-06-19T17:24:04.820Z,1.77
2018-06-19T17:26:35.500Z,1.40
2018-06-19T17:29:06.208Z,1.27
2018-06-19T17:31:37.145Z,1.60
2018-06-19T17:34:08.392Z,1.70
2018-06-19T17:36:39.112Z,1.57
2018-06-19T17:39:11.155Z,1.50
2018-06-19T17:41:41.938Z,1.20
2018-06-19T17:44:13.738Z,1.00
2018-06-19T17:46:44.394Z,1.07
2018-06-19T17:49:15.082Z,1.33
2018-06-19T17:51:45.723Z,1.20
2018-06-19T17:54:16.444Z,1.67
2018-06-19T17:56:47.114Z,1.50
2018-06-19T17:59:17.752Z,1.13
2018-06-19T18:01:48.553Z,1.50
2018-06-19T18:04:19.384Z,1.20
2018-06-19T18:06:49.749Z,1.30
2018-06-19T18:09:20.127Z,1.63
2018-06-19T18:11:50.830Z,1.93
2018-06-19T18:14:28.307Z,1.67
2018-06-19T18:16:59.757Z,1.63
2018-06-19T18:19:30.521Z,1.60
2018-06-19T18:22:01.289Z,1.30
2018-06-19T18:24:31.917Z,2.97
2018-06-19T18:27:02.760Z,1.57
2018-06-19T18:29:33.482Z,2.10
2018-06-19T18:35:54.103Z,1.70
2018-06-19T18:38:25.192Z,1.63
2018-06-19T18:40:55.845Z,1.70
2018-06-19T18:43:26.545Z,2.03
2018-06-19T18:45:57.409Z,1.63
2018-06-19T18:48:28.512Z,3.33
2018-06-19T18:50:59.582Z,1.67
2018-06-19T18:53:30.864Z,1.83
2018-06-19T18:56:02.420Z,1.73
2018-06-19T18:58:33.816Z,1.90
2018-06-19T19:01:04.572Z,1.80
2018-06-19T19:03:35.166Z,2.00
2018-06-19T19:06:06.511Z,1.90
2018-06-19T19:08:37.000Z,2.17
2018-06-19T19:11:08.189Z,2.30
2018-06-19T19:13:38.907Z,2.20
2018-06-19T19:16:14.569Z,2.20
2018-06-19T19:18:50.565Z,2.33
2018-06-19T19:21:21.377Z,1.97
2018-06-19T19:23:52.454Z,1.73
2018-06-19T19:26:28.413Z,1.93
2018-06-19T19:29:04.533Z,2.20
2018-06-19T19:31:39.941Z,2.20
2018-06-19T19:34:10.803Z,1.67
2018-06-19T19:36:46.981Z,1.97
2018-06-19T19:39:29.456Z,1.90
2018-06-19T19:42:00.445Z,2.20
2018-06-19T19:44:31.162Z,1.83
2018-06-19T19:47:06.892Z,2.50
2018-06-19T19:49:37.542Z,2.80
2018-06-19T19:52:08.149Z,1.90
2018-06-19T19:54:39.005Z,2.30
2018-06-19T19:57:15.100Z,1.90
2018-06-19T19:59:46.003Z,2.03
2018-06-19T20:02:16.671Z,2.57
2018-06-19T20:04:47.525Z,4.80
2018-06-19T20:07:18.209Z,2.80
2018-06-19T20:09:49.209Z,3.53
2018-06-19T20:12:20.118Z,2.40
2018-06-19T20:14:50.873Z,1.97
2018-06-19T20:17:21.640Z,5.80
2018-06-19T20:19:52.448Z,4.30
2018-06-19T20:22:24.339Z,2.90
2018-06-19T20:24:54.774Z,2.40
2018-06-19T20:27:24.862Z,2.77
2018-06-19T20:29:55.504Z,3.30
2018-06-19T20:32:25.968Z,4.00
2018-06-19T20:34:56.785Z,3.70
2018-06-19T20:37:27.594Z,3.03
2018-06-19T20:39:58.276Z,4.03
2018-06-19T20:42:29.097Z,2.90
2018-06-19T20:45:00.219Z,2.80
2018-06-19T20:47:31.619Z,2.70
2018-06-19T20:50:02.369Z,2.40
2018-06-19T20:52:33.241Z,3.53
2018-06-19T20:55:05.173Z,3.37
2018-06-19T20:57:36.013Z,2.90
2018-06-19T21:00:07.002Z,2.37
2018-06-19T21:02:38.285Z,3.50
2018-06-19T21:05:10.874Z,2.97
2018-06-19T21:07:41.841Z,2.43
2018-06-19T21:10:12.596Z,3.20
2018-06-19T21:12:44.597Z,3.23
2018-06-19T21:15:15.725Z,3.27
2018-06-19T21:17:46.542Z,3.90
2018-06-19T21:20:17.300Z,4.07
2018-06-19T21:22:47.844Z,3.20
2018-06-19T21:25:18.882Z,3.13
2018-06-19T21:27:49.511Z,2.70
2018-06-19T21:30:20.166Z,2.83
2018-06-19T21:32:51.083Z,3.50
2018-06-19T21:35:21.946Z,3.40
2018-06-19T21:37:52.825Z,3.00
2018-06-19T21:40:23.577Z,2.73
2018-06-19T21:42:54.687Z,3.33
2018-06-19T21:45:25.474Z,3.03
2018-06-19T21:47:56.684Z,2.20
2018-06-19T21:50:27.709Z,3.23
2018-06-19T21:52:58.609Z,2.53
2018-06-19T21:55:29.656Z,3.10
2018-06-19T21:58:00.362Z,3.67
2018-06-19T22:00:31.227Z,2.73
2018-06-19T22:03:01.997Z,3.20
2018-06-19T22:05:32.988Z,3.73
2018-06-19T22:08:03.690Z,3.20
2018-06-19T22:10:34.347Z,3.87
2018-06-19T22:13:05.344Z,3.73
2018-06-19T22:15:36.037Z,2.67
2018-06-19T22:18:07.058Z,2.90
2018-06-19T22:20:37.801Z,3.13
2018-06-19T22:23:08.836Z,2.90
2018-06-19T22:25:39.619Z,3.33
2018-06-19T22:28:10.561Z,2.90
2018-06-19T22:30:41.427Z,2.93
2018-06-19T22:33:12.189Z,3.10
2018-06-19T22:35:42.719Z,3.70
2018-06-19T22:38:13.278Z,2.60
2018-06-19T22:40:43.752Z,3.20
2018-06-19T22:43:14.357Z,2.83
2018-06-19T22:45:51.573Z,3.40
2018-06-19T22:48:23.118Z,3.30
2018-06-19T22:50:54.045Z,3.27
2018-06-19T22:53:24.723Z,3.17
2018-06-19T22:55:55.313Z,3.20
2018-06-19T22:58:26.643Z,3.10
2018-06-19T23:00:57.197Z,3.20
2018-06-19T23:03:27.878Z,3.23
2018-06-19T23:05:58.564Z,3.30
2018-06-19T23:08:33.496Z,2.60
2018-06-19T23:11:04.736Z,3.00
2018-06-19T23:13:35.421Z,3.50
2018-06-19T23:16:05.926Z,2.63
2018-06-19T23:18:36.704Z,3.07
2018-06-19T23:21:06.970Z,3.17
2018-06-19T23:23:37.564Z,2.80
2018-06-19T23:26:08.204Z,3.40
2018-06-19T23:28:38.759Z,3.00
2018-06-19T23:31:09.452Z,2.90
2018-06-19T23:33:40.054Z,3.57
2018-06-19T23:36:10.628Z,3.60
2018-06-19T23:38:41.079Z,3.30
2018-06-19T23:41:12.201Z,3.20
2018-06-19T23:43:42.816Z,2.97
2018-06-19T23:46:13.521Z,3.27
2018-06-19T23:48:44.294Z,2.57
2018-06-19T23:51:14.904Z,3.10
2018-06-19T23:53:45.434Z,2.80
2018-06-19T23:56:16.103Z,3.10
2018-06-19T23:58:47.188Z,3.00
